Time;durP1;ratioP1;P1;durP2;ratioP2;P2;SDS_P1;SDS_P2;PMS_P1;PMS_P2;Temp;Humidity;BMP_temperature;BMP_pressure;BME280_temperature;BME280_humidity;BME280_pressure;Samples;Min_cycle;Max_cycle;Signal;HPM_P1;HPM_P2
2021/10/13 00:00:32;;;;;;;7.57;5.55;;;5.80;99.90;;;;;;475442;249;27331;-76
2021/10/13 00:02:33;;;;;;;6.53;5.70;;;5.80;99.90;;;;;;475453;249;27380;-76
2021/10/13 00:04:34;;;;;;;8.20;6.20;;;5.80;99.90;;;;;;475282;249;27689;-74
2021/10/13 00:06:36;;;;;;;9.30;5.70;;;5.80;99.90;;;;;;475392;249;27368;-75
2021/10/13 00:08:37;;;;;;;8.15;5.70;;;5.80;99.90;;;;;;475415;249;27383;-75
2021/10/13 00:10:38;;;;;;;8.10;5.85;;;5.80;99.90;;;;;;475429;249;27781;-75
2021/10/13 00:12:39;;;;;;;9.85;6.80;;;5.70;99.90;;;;;;475422;249;27826;-75
2021/10/13 00:14:41;;;;;;;10.30;7.53;;;5.80;99.90;;;;;;475389;250;27359;-75
2021/10/13 00:16:51;;;;;;;9.40;6.97;;;5.70;99.90;;;;;;475384;249;27371;-75
2021/10/13 00:18:43;;;;;;;10.27;6.97;;;5.70;99.90;;;;;;474774;250;27363;-75
2021/10/13 00:20:45;;;;;;;8.20;7.00;;;5.60;99.90;;;;;;475383;249;27332;-75
2021/10/13 00:22:46;;;;;;;9.95;7.90;;;5.60;99.90;;;;;;475392;249;27375;-75
2021/10/13 00:24:47;;;;;;;12.75;8.00;;;5.70;99.90;;;;;;475411;249;27336;-75
2021/10/13 00:26:48;;;;;;;11.70;7.50;;;5.70;99.90;;;;;;475395;249;27801;-75
2021/10/13 00:28:50;;;;;;;10.85;7.93;;;5.70;99.90;;;;;;475387;249;27865;-75
2021/10/13 00:30:51;;;;;;;9.57;7.30;;;5.70;99.90;;;;;;475394;249;27367;-76
2021/10/13 00:32:52;;;;;;;10.98;7.90;;;5.70;99.90;;;;;;475381;249;27470;-75
2021/10/13 00:34:53;;;;;;;16.23;8.70;;;5.60;99.90;;;;;;475398;249;27460;-75
2021/10/13 00:36:55;;;;;;;14.40;8.07;;;5.60;99.90;;;;;;475376;249;27331;-75
2021/10/13 00:38:56;;;;;;;13.38;7.95;;;5.60;99.90;;;;;;475405;249;27372;-75
2021/10/13 00:40:57;;;;;;;14.65;7.93;;;5.60;99.90;;;;;;475394;249;27903;-75
2021/10/13 00:42:58;;;;;;;10.25;7.25;;;5.50;99.90;;;;;;475419;249;27483;-75
2021/10/13 00:45:00;;;;;;;10.38;7.60;;;5.50;99.90;;;;;;475434;249;27384;-75
2021/10/13 00:47:01;;;;;;;10.93;7.65;;;5.40;99.90;;;;;;475486;249;27379;-76
2021/10/13 00:49:02;;;;;;;9.73;7.20;;;5.40;99.90;;;;;;475468;247;27349;-75
2021/10/13 00:51:03;;;;;;;10.55;7.97;;;5.40;99.90;;;;;;475399;249;27327;-74
2021/10/13 00:53:05;;;;;;;8.68;6.60;;;5.50;99.90;;;;;;475439;249;27375;-75
2021/10/13 00:55:06;;;;;;;9.13;7.10;;;5.50;99.90;;;;;;475444;249;27855;-75
2021/10/13 00:57:07;;;;;;;10.20;7.57;;;5.50;99.90;;;;;;475438;249;27791;-75
2021/10/13 00:59:08;;;;;;;9.70;7.40;;;5.40;99.90;;;;;;475460;249;27342;-75
2021/10/13 01:01:10;;;;;;;11.30;7.20;;;5.40;99.90;;;;;;475432;249;27372;-76
2021/10/13 01:03:11;;;;;;;15.00;8.27;;;5.40;99.90;;;;;;475455;249;27343;-75
2021/10/13 01:05:12;;;;;;;13.57;8.05;;;5.40;99.90;;;;;;475456;249;27400;-75
2021/10/13 01:07:13;;;;;;;10.77;7.70;;;5.40;99.90;;;;;;475452;249;27436;-74
2021/10/13 01:09:15;;;;;;;10.25;7.53;;;5.40;99.90;;;;;;475539;249;27911;-76
2021/10/13 01:11:16;;;;;;;8.45;7.00;;;5.40;99.90;;;;;;475441;249;28047;-75
2021/10/13 01:13:17;;;;;;;10.05;6.78;;;5.40;99.90;;;;;;475451;249;27380;-75
2021/10/13 01:15:18;;;;;;;11.18;6.80;;;5.40;99.90;;;;;;475467;249;27399;-76
2021/10/13 01:17:20;;;;;;;10.80;7.00;;;5.40;99.90;;;;;;475435;249;27344;-75
2021/10/13 01:19:21;;;;;;;9.77;7.30;;;5.40;99.90;;;;;;475430;249;27408;-75
2021/10/13 01:21:22;;;;;;;11.25;6.85;;;5.50;99.90;;;;;;475391;249;27717;-75
2021/10/13 01:23:24;;;;;;;12.82;8.20;;;5.50;99.90;;;;;;475425;249;27407;-75
2021/10/13 01:25:25;;;;;;;12.55;7.40;;;5.50;99.90;;;;;;475412;249;27935;-76
2021/10/13 01:27:26;;;;;;;9.70;7.00;;;5.60;99.90;;;;;;475441;249;27789;-75
2021/10/13 01:29:27;;;;;;;10.52;7.05;;;5.60;99.90;;;;;;475400;249;27353;-75
2021/10/13 01:31:29;;;;;;;11.48;8.00;;;5.50;99.90;;;;;;475437;249;27434;-76
2021/10/13 01:33:30;;;;;;;9.82;7.80;;;5.50;99.90;;;;;;475409;249;27415;-75
2021/10/13 01:35:31;;;;;;;13.00;8.50;;;5.60;99.90;;;;;;475395;249;27391;-75
2021/10/13 01:37:32;;;;;;;11.55;8.23;;;5.60;99.90;;;;;;475413;249;27404;-75
2021/10/13 01:39:34;;;;;;;13.00;8.73;;;5.60;99.90;;;;;;475422;249;27780;-75
2021/10/13 01:41:35;;;;;;;10.45;7.93;;;5.60;99.90;;;;;;475414;249;27943;-75
2021/10/13 01:43:36;;;;;;;13.70;8.60;;;5.60;99.90;;;;;;475461;249;27339;-75
2021/10/13 01:45:38;;;;;;;9.80;7.95;;;5.70;99.90;;;;;;475408;249;27368;-76
2021/10/13 01:47:39;;;;;;;8.38;6.70;;;5.80;99.90;;;;;;475356;249;27420;-75
2021/10/13 01:49:40;;;;;;;8.63;6.50;;;5.80;99.90;;;;;;475453;250;27353;-76
2021/10/13 01:51:41;;;;;;;9.05;7.18;;;5.60;99.90;;;;;;475449;249;27456;-74
2021/10/13 01:53:42;;;;;;;7.65;5.75;;;5.40;99.90;;;;;;475402;249;27329;-75
2021/10/13 01:55:44;;;;;;;7.15;5.95;;;5.40;99.90;;;;;;475426;249;27954;-75
2021/10/13 01:57:45;;;;;;;6.37;5.55;;;5.20;99.90;;;;;;475472;249;27867;-76
2021/10/13 01:59:46;;;;;;;5.40;4.75;;;5.10;99.90;;;;;;475440;249;27327;-75
2021/10/13 02:01:47;;;;;;;7.50;5.45;;;5.20;99.90;;;;;;475471;249;27396;-75
2021/10/13 02:03:49;;;;;;;5.78;4.80;;;5.20;99.90;;;;;;475494;249;27335;-75
2021/10/13 02:05:50;;;;;;;7.05;4.55;;;5.20;99.90;;;;;;475450;249;27363;-75
2021/10/13 02:07:51;;;;;;;5.55;4.82;;;5.20;99.90;;;;;;475450;249;27448;-75
2021/10/13 02:09:52;;;;;;;8.65;5.30;;;5.40;99.90;;;;;;475435;249;27419;-75
2021/10/13 02:11:54;;;;;;;6.55;5.37;;;5.40;99.90;;;;;;475435;249;27380;-75
2021/10/13 02:13:55;;;;;;;6.28;5.40;;;5.40;99.90;;;;;;475433;249;27790;-76
2021/10/13 02:15:56;;;;;;;6.55;5.45;;;5.40;99.90;;;;;;475440;249;27789;-76
2021/10/13 02:17:57;;;;;;;6.50;4.90;;;5.30;99.90;;;;;;475436;249;27975;-75
2021/10/13 02:19:59;;;;;;;5.45;4.70;;;5.10;99.90;;;;;;475454;249;27376;-75
2021/10/13 02:22:00;;;;;;;6.45;4.90;;;5.00;99.90;;;;;;475419;249;27468;-75
2021/10/13 02:24:01;;;;;;;5.37;4.87;;;5.10;99.90;;;;;;475398;249;27368;-75
2021/10/13 02:26:02;;;;;;;6.53;5.60;;;5.10;99.90;;;;;;475402;249;27339;-75
2021/10/13 02:28:04;;;;;;;8.00;5.80;;;5.20;99.90;;;;;;475417;249;27363;-75
2021/10/13 02:30:05;;;;;;;6.65;5.70;;;5.20;99.90;;;;;;475372;249;27321;-76
2021/10/13 02:32:06;;;;;;;10.27;5.65;;;5.20;99.90;;;;;;475409;249;27844;-75
2021/10/13 02:34:07;;;;;;;10.13;6.47;;;5.30;99.90;;;;;;475392;249;28727;-75
2021/10/13 02:36:09;;;;;;;9.98;6.00;;;5.30;99.90;;;;;;475427;249;27351;-75
2021/10/13 02:38:10;;;;;;;9.40;6.05;;;5.40;99.90;;;;;;475451;249;27462;-75
2021/10/13 02:40:11;;;;;;;9.50;6.70;;;5.30;99.90;;;;;;475463;249;27365;-75
2021/10/13 02:42:12;;;;;;;9.85;6.45;;;5.20;99.90;;;;;;475447;249;27440;-76
2021/10/13 02:44:14;;;;;;;6.35;5.10;;;5.20;99.90;;;;;;475459;249;27341;-76
2021/10/13 02:46:15;;;;;;;7.45;5.43;;;5.20;99.90;;;;;;475448;249;27435;-76
2021/10/13 02:48:16;;;;;;;7.75;5.62;;;5.30;99.90;;;;;;475452;249;27363;-76
2021/10/13 02:50:17;;;;;;;6.30;5.20;;;5.30;99.90;;;;;;475377;249;27803;-75
2021/10/13 02:52:19;;;;;;;8.15;5.53;;;5.20;99.90;;;;;;475442;249;27858;-76
2021/10/13 02:54:20;;;;;;;6.00;5.40;;;5.30;99.90;;;;;;475430;249;27360;-75
2021/10/13 02:56:21;;;;;;;7.40;5.50;;;5.30;99.90;;;;;;475409;249;27475;-76
2021/10/13 02:58:23;;;;;;;7.32;5.03;;;5.40;99.90;;;;;;475435;249;27376;-75
2021/10/13 03:00:24;;;;;;;5.18;4.60;;;5.40;99.90;;;;;;474976;249;27365;-75
2021/10/13 03:02:25;;;;;;;7.07;5.22;;;5.40;99.90;;;;;;474492;249;27504;-76
2021/10/13 03:04:28;;;;;;;8.88;5.70;;;5.40;99.90;;;;;;474438;249;27476;-75
2021/10/13 03:06:28;;;;;;;7.62;5.18;;;5.40;99.90;;;;;;474395;249;27955;-75
2021/10/13 03:08:29;;;;;;;8.27;5.75;;;5.50;99.90;;;;;;474413;249;28039;-75
2021/10/13 03:10:30;;;;;;;7.68;5.43;;;5.50;99.90;;;;;;474259;249;28743;-75
2021/10/13 03:12:31;;;;;;;7.70;6.00;;;5.50;99.90;;;;;;474391;249;27576;-76
2021/10/13 03:14:33;;;;;;;9.95;6.10;;;5.40;99.90;;;;;;474404;249;27470;-75
2021/10/13 03:16:34;;;;;;;11.77;7.85;;;5.30;99.90;;;;;;474429;249;27461;-75
2021/10/13 03:18:35;;;;;;;9.77;6.62;;;5.40;99.90;;;;;;474490;249;27471;-75
2021/10/13 03:20:36;;;;;;;9.93;6.57;;;5.40;99.90;;;;;;474406;249;27499;-75
2021/10/13 03:22:38;;;;;;;9.55;6.75;;;5.50;99.90;;;;;;474444;249;27916;-75
2021/10/13 03:24:39;;;;;;;9.05;6.57;;;5.50;99.90;;;;;;474443;249;27948;-76
2021/10/13 03:26:40;;;;;;;10.48;6.62;;;5.50;99.90;;;;;;474430;249;27550;-75
2021/10/13 03:28:41;;;;;;;18.20;8.55;;;5.50;99.90;;;;;;474423;249;27470;-75
2021/10/13 03:30:44;;;;;;;10.70;7.03;;;5.60;99.90;;;;;;474460;249;27483;-76
2021/10/13 03:32:44;;;;;;;9.90;6.25;;;5.60;99.90;;;;;;474479;249;27421;-75
2021/10/13 03:34:45;;;;;;;12.20;6.90;;;5.60;99.90;;;;;;474445;249;27463;-75
2021/10/13 03:36:46;;;;;;;8.63;5.87;;;5.60;99.90;;;;;;474419;249;27876;-75
2021/10/13 03:38:48;;;;;;;9.10;6.50;;;5.60;99.90;;;;;;474403;249;27893;-75
2021/10/13 03:40:49;;;;;;;9.70;6.75;;;5.60;99.90;;;;;;474399;249;27563;-75
2021/10/13 03:42:50;;;;;;;6.97;5.45;;;5.60;99.90;;;;;;474388;249;27411;-74
2021/10/13 03:44:51;;;;;;;8.60;6.07;;;5.60;99.90;;;;;;474423;249;27562;-76
2021/10/13 03:46:53;;;;;;;8.10;5.82;;;5.50;99.90;;;;;;474431;249;27363;-76
2021/10/13 03:48:54;;;;;;;9.88;6.32;;;5.50;99.90;;;;;;474377;249;27424;-76
2021/10/13 03:50:55;;;;;;;8.15;6.18;;;5.50;99.90;;;;;;474375;249;27531;-75
2021/10/13 03:52:56;;;;;;;11.43;6.60;;;5.50;99.90;;;;;;474425;249;27901;-75
2021/10/13 03:54:58;;;;;;;9.63;6.37;;;5.50;99.90;;;;;;474450;249;27962;-75
2021/10/13 03:56:59;;;;;;;10.27;6.20;;;5.50;99.90;;;;;;474414;249;27471;-75
2021/10/13 03:59:00;;;;;;;8.40;6.25;;;5.40;99.90;;;;;;474383;249;27568;-75
2021/10/13 04:01:01;;;;;;;10.63;7.03;;;5.40;99.90;;;;;;474349;249;27459;-75
2021/10/13 04:03:03;;;;;;;9.38;6.90;;;5.40;99.90;;;;;;474414;249;27433;-75
2021/10/13 04:05:04;;;;;;;10.48;6.60;;;5.30;99.90;;;;;;474416;249;27455;-75
2021/10/13 04:07:05;;;;;;;9.18;6.60;;;5.30;99.90;;;;;;474452;249;27960;-76
2021/10/13 04:09:07;;;;;;;9.65;6.82;;;5.30;99.90;;;;;;474429;249;27991;-75
2021/10/13 04:11:08;;;;;;;7.72;5.90;;;5.30;99.90;;;;;;474245;249;27463;-75
2021/10/13 04:13:09;;;;;;;9.45;6.20;;;5.20;99.90;;;;;;474194;249;27416;-75
2021/10/13 04:15:10;;;;;;;10.38;5.32;;;5.00;99.90;;;;;;474402;249;27342;-75
2021/10/13 04:17:12;;;;;;;6.35;5.12;;;5.00;99.90;;;;;;474406;249;27464;-75
2021/10/13 04:19:13;;;;;;;6.50;5.62;;;5.00;99.90;;;;;;474481;249;27512;-75
2021/10/13 04:21:14;;;;;;;7.57;5.62;;;5.00;99.90;;;;;;474457;249;27583;-75
2021/10/13 04:23:15;;;;;;;6.93;5.55;;;5.00;99.90;;;;;;474404;249;28429;-75
2021/10/13 04:25:17;;;;;;;6.25;4.75;;;5.10;99.90;;;;;;474407;249;27986;-75
2021/10/13 04:27:18;;;;;;;7.35;5.43;;;5.10;99.90;;;;;;474329;249;28070;-75
2021/10/13 04:29:19;;;;;;;7.95;5.28;;;5.00;99.90;;;;;;474358;249;27459;-75
2021/10/13 04:31:20;;;;;;;6.07;5.10;;;5.00;99.90;;;;;;474329;249;27494;-75
2021/10/13 04:33:22;;;;;;;8.07;6.10;;;5.00;99.90;;;;;;474353;249;27426;-75
2021/10/13 04:35:23;;;;;;;7.25;5.35;;;5.00;99.90;;;;;;474338;249;27519;-75
2021/10/13 04:37:24;;;;;;;8.05;6.47;;;4.90;99.90;;;;;;474358;249;27550;-75
2021/10/13 04:39:25;;;;;;;8.98;7.50;;;4.80;99.90;;;;;;474367;249;27556;-76
2021/10/13 04:41:27;;;;;;;7.53;6.37;;;4.80;99.90;;;;;;474356;249;27944;-75
2021/10/13 04:43:28;;;;;;;7.78;6.28;;;4.80;99.90;;;;;;474363;249;28041;-75
2021/10/13 04:45:29;;;;;;;6.20;5.60;;;4.70;99.90;;;;;;474403;249;27887;-75
2021/10/13 04:47:30;;;;;;;8.48;6.30;;;4.70;99.90;;;;;;474421;249;27472;-75
2021/10/13 04:49:32;;;;;;;6.55;5.50;;;4.60;99.90;;;;;;474406;249;27479;-74
2021/10/13 04:51:33;;;;;;;7.10;5.90;;;4.50;99.90;;;;;;474375;249;27476;-75
2021/10/13 04:53:34;;;;;;;6.72;5.80;;;4.50;99.90;;;;;;474390;249;27483;-75
2021/10/13 04:55:35;;;;;;;6.28;5.12;;;4.50;99.90;;;;;;474400;249;27420;-74
2021/10/13 04:57:37;;;;;;;7.72;5.75;;;4.40;99.90;;;;;;474393;249;27475;-75
2021/10/13 04:59:38;;;;;;;5.43;4.85;;;4.40;99.90;;;;;;474402;249;27458;-75
2021/10/13 05:01:39;;;;;;;6.22;5.50;;;4.40;99.90;;;;;;474387;249;27951;-75
2021/10/13 05:03:40;;;;;;;5.25;4.75;;;4.40;99.90;;;;;;474302;249;27948;-75
2021/10/13 05:05:42;;;;;;;5.90;5.03;;;4.40;99.90;;;;;;474383;249;28038;-75
2021/10/13 05:07:43;;;;;;;5.20;4.70;;;4.30;99.90;;;;;;474310;249;27458;-75
2021/10/13 05:09:44;;;;;;;5.07;4.55;;;4.30;99.90;;;;;;474368;249;27428;-75
2021/10/13 05:11:45;;;;;;;5.12;4.60;;;4.30;99.90;;;;;;474349;249;27459;-75
2021/10/13 05:13:47;;;;;;;5.68;5.12;;;4.20;99.90;;;;;;474393;249;27474;-75
2021/10/13 05:15:48;;;;;;;5.93;5.20;;;4.20;99.90;;;;;;474394;249;27416;-75
2021/10/13 05:17:49;;;;;;;5.68;4.80;;;4.10;99.90;;;;;;474421;249;27491;-75
2021/10/13 05:19:50;;;;;;;5.60;4.40;;;4.10;99.90;;;;;;474357;249;27527;-75
2021/10/13 05:21:52;;;;;;;4.62;4.20;;;4.10;99.90;;;;;;474383;249;27379;-75
2021/10/13 05:23:53;;;;;;;6.10;4.78;;;4.00;99.90;;;;;;474396;249;27486;-75
2021/10/13 05:25:54;;;;;;;5.12;4.20;;;4.10;99.90;;;;;;474384;249;27499;-75
2021/10/13 05:27:56;;;;;;;4.90;4.40;;;4.10;99.90;;;;;;474355;249;27557;-75
2021/10/13 05:29:57;;;;;;;4.90;4.40;;;4.10;99.90;;;;;;474377;249;27810;-75
2021/10/13 05:31:58;;;;;;;5.68;4.68;;;4.10;99.90;;;;;;474377;249;27435;-75
2021/10/13 05:33:59;;;;;;;5.25;4.75;;;4.00;99.90;;;;;;474377;249;27563;-75
2021/10/13 05:36:01;;;;;;;6.93;5.65;;;4.00;99.90;;;;;;474371;249;27480;-74
2021/10/13 05:38:02;;;;;;;7.35;5.30;;;3.90;99.90;;;;;;474383;249;27548;-75
2021/10/13 05:40:03;;;;;;;5.45;4.95;;;3.90;99.90;;;;;;474390;249;27472;-75
2021/10/13 05:42:05;;;;;;;5.60;5.10;;;3.90;99.90;;;;;;474396;249;27450;-75
2021/10/13 05:44:06;;;;;;;5.97;5.43;;;3.90;99.90;;;;;;474403;249;27483;-75
2021/10/13 05:46:07;;;;;;;5.55;4.90;;;3.90;99.90;;;;;;474381;249;27908;-75
2021/10/13 05:48:08;;;;;;;5.57;5.07;;;3.80;99.90;;;;;;474411;251;27433;-75
2021/10/13 05:50:10;;;;;;;5.47;4.80;;;3.90;99.90;;;;;;474380;249;27464;-74
2021/10/13 05:52:11;;;;;;;5.18;4.68;;;3.90;99.90;;;;;;474382;249;27422;-75
2021/10/13 05:54:12;;;;;;;4.80;4.40;;;3.90;99.90;;;;;;474361;249;27923;-75
2021/10/13 05:56:13;;;;;;;5.50;5.00;;;3.80;99.90;;;;;;474324;249;28064;-75
2021/10/13 05:58:17;;;;;;;5.28;4.55;;;3.60;99.90;;;;;;474392;249;27961;-75
2021/10/13 06:00:16;;;;;;;5.22;4.70;;;3.70;99.90;;;;;;474265;251;27922;-75
2021/10/13 06:02:17;;;;;;;5.90;5.12;;;3.50;99.90;;;;;;474380;249;27416;-75
2021/10/13 06:04:18;;;;;;;6.25;5.60;;;3.30;99.90;;;;;;474237;249;27577;-75
2021/10/13 06:06:20;;;;;;;5.95;5.20;;;3.40;99.90;;;;;;474382;249;27559;-75
2021/10/13 06:08:21;;;;;;;5.10;4.57;;;3.50;99.90;;;;;;474404;249;27440;-75
2021/10/13 06:10:22;;;;;;;6.87;5.78;;;3.50;99.90;;;;;;474388;249;27551;-75
2021/10/13 06:12:23;;;;;;;5.97;5.35;;;3.40;99.90;;;;;;474420;249;27431;-74
2021/10/13 06:14:25;;;;;;;6.03;4.85;;;3.40;99.90;;;;;;474412;249;27576;-75
2021/10/13 06:16:26;;;;;;;6.18;4.95;;;3.50;99.90;;;;;;474388;249;27477;-75
2021/10/13 06:18:27;;;;;;;5.20;4.60;;;3.60;99.90;;;;;;474367;249;27431;-75
2021/10/13 06:20:29;;;;;;;5.05;4.55;;;3.60;99.90;;;;;;474387;249;27451;-75
2021/10/13 06:22:30;;;;;;;5.25;4.50;;;3.70;99.90;;;;;;474355;249;28402;-75
2021/10/13 06:24:31;;;;;;;4.82;4.32;;;3.70;99.90;;;;;;474379;249;27910;-75
2021/10/13 06:26:32;;;;;;;4.55;4.15;;;3.80;99.90;;;;;;474395;249;29092;-75
2021/10/13 06:28:33;;;;;;;4.03;3.72;;;3.90;99.90;;;;;;474396;249;28158;-75
2021/10/13 06:30:37;;;;;;;4.90;4.40;;;3.90;99.90;;;;;;474380;249;27551;-75
2021/10/13 06:32:36;;;;;;;4.68;4.20;;;3.90;99.90;;;;;;474260;251;27475;-75
2021/10/13 06:34:37;;;;;;;4.62;4.05;;;3.90;99.90;;;;;;474388;248;27468;-74
2021/10/13 06:36:38;;;;;;;4.32;3.92;;;4.00;99.90;;;;;;474428;249;27463;-75
2021/10/13 06:38:40;;;;;;;5.10;4.35;;;3.80;99.90;;;;;;474435;249;27428;-75
2021/10/13 06:40:41;;;;;;;5.70;5.10;;;3.70;99.90;;;;;;474395;249;27396;-75
2021/10/13 06:42:42;;;;;;;5.72;5.15;;;3.60;99.90;;;;;;474508;249;27483;-75
2021/10/13 06:44:43;;;;;;;7.75;4.75;;;3.70;99.90;;;;;;474498;249;27433;-75
2021/10/13 06:46:45;;;;;;;5.28;4.75;;;3.80;99.90;;;;;;474467;249;27468;-76
2021/10/13 06:48:46;;;;;;;5.22;4.72;;;3.90;99.90;;;;;;473637;251;27884;-75
2021/10/13 06:50:47;;;;;;;4.80;4.40;;;4.10;99.90;;;;;;474389;249;27907;-75
2021/10/13 06:52:48;;;;;;;4.00;3.62;;;4.20;99.90;;;;;;474427;249;29023;-74
2021/10/13 06:54:50;;;;;;;4.62;4.22;;;4.20;99.90;;;;;;474387;249;27999;-75
2021/10/13 06:56:51;;;;;;;4.30;3.90;;;4.30;99.90;;;;;;474426;249;27553;-75
2021/10/13 06:58:53;;;;;;;4.10;3.80;;;4.30;99.90;;;;;;474405;249;27569;-75
2021/10/13 07:00:53;;;;;;;3.85;3.55;;;4.40;99.90;;;;;;474413;249;27540;-73
2021/10/13 07:02:55;;;;;;;4.15;3.80;;;4.50;99.90;;;;;;474429;249;27551;-73
2021/10/13 07:04:56;;;;;;;5.55;3.37;;;4.60;99.90;;;;;;474408;249;27420;-75
2021/10/13 07:06:57;;;;;;;3.78;3.45;;;4.70;99.90;;;;;;474393;249;27465;-75
2021/10/13 07:08:58;;;;;;;3.62;3.33;;;4.80;99.90;;;;;;474408;249;27448;-75
2021/10/13 07:11:00;;;;;;;5.32;3.70;;;4.90;99.90;;;;;;474422;249;27428;-75
2021/10/13 07:13:01;;;;;;;4.10;3.70;;;4.90;99.90;;;;;;474438;249;27917;-75
2021/10/13 07:15:02;;;;;;;3.97;3.62;;;4.90;99.90;;;;;;474416;249;28042;-75
2021/10/13 07:17:03;;;;;;;4.22;3.83;;;4.90;99.90;;;;;;474408;249;27941;-75
2021/10/13 07:19:05;;;;;;;5.12;4.05;;;4.90;99.90;;;;;;474404;249;27467;-74
2021/10/13 07:21:06;;;;;;;4.40;4.00;;;5.00;99.90;;;;;;474405;249;27469;-75
2021/10/13 07:23:07;;;;;;;5.50;5.00;;;5.00;99.90;;;;;;474347;249;27451;-75
2021/10/13 07:25:08;;;;;;;4.72;4.00;;;5.10;99.90;;;;;;474458;249;27424;-75
2021/10/13 07:27:10;;;;;;;5.03;4.12;;;4.90;99.90;;;;;;474427;249;27555;-75
2021/10/13 07:29:11;;;;;;;5.40;4.28;;;5.00;99.90;;;;;;474420;249;27808;-75
2021/10/13 07:31:12;;;;;;;6.68;3.58;;;5.20;99.90;;;;;;474394;249;27491;-75
2021/10/13 07:33:13;;;;;;;4.50;4.10;;;5.40;99.90;;;;;;474255;249;27924;-75
2021/10/13 07:35:15;;;;;;;5.25;4.28;;;5.40;99.90;;;;;;474423;249;27887;-75
2021/10/13 07:37:16;;;;;;;7.50;4.45;;;5.30;99.90;;;;;;474430;249;27542;-75
2021/10/13 07:39:17;;;;;;;6.50;4.97;;;5.40;99.90;;;;;;474412;249;27544;-75
2021/10/13 07:41:18;;;;;;;5.45;4.40;;;5.50;99.90;;;;;;474437;249;27519;-75
2021/10/13 07:43:20;;;;;;;5.68;3.85;;;5.50;99.90;;;;;;474400;249;27480;-75
2021/10/13 07:45:21;;;;;;;5.75;4.55;;;5.70;99.90;;;;;;474507;249;27499;-76
2021/10/13 07:47:23;;;;;;;6.10;4.03;;;5.80;99.90;;;;;;474465;249;27600;-76
2021/10/13 07:49:23;;;;;;;4.62;3.58;;;5.90;99.90;;;;;;474416;249;28039;-75
2021/10/13 07:51:25;;;;;;;4.40;3.70;;;6.00;99.90;;;;;;474438;249;27879;-75
2021/10/13 07:53:26;;;;;;;4.53;4.00;;;6.10;99.90;;;;;;474415;249;27464;-75
2021/10/13 07:55:27;;;;;;;4.28;3.85;;;6.10;99.90;;;;;;474437;249;28719;-75
2021/10/13 07:57:29;;;;;;;5.20;4.20;;;6.20;99.90;;;;;;474484;249;27412;-76
2021/10/13 07:59:30;;;;;;;6.53;4.12;;;6.30;99.90;;;;;;474478;249;28748;-76
2021/10/13 08:01:31;;;;;;;5.30;4.60;;;6.40;99.90;;;;;;474504;249;27412;-76
2021/10/13 08:03:32;;;;;;;6.32;4.55;;;6.40;99.90;;;;;;474514;249;27574;-76
2021/10/13 08:05:34;;;;;;;7.35;4.47;;;6.50;99.90;;;;;;474428;249;27992;-76
2021/10/13 08:07:35;;;;;;;4.53;4.07;;;6.60;99.90;;;;;;474502;249;27887;-76
2021/10/13 08:09:36;;;;;;;7.10;4.70;;;6.70;99.90;;;;;;474478;249;27917;-76
2021/10/13 08:11:37;;;;;;;6.13;4.90;;;6.70;99.90;;;;;;474468;249;28715;-76
2021/10/13 08:13:38;;;;;;;5.90;4.77;;;6.80;99.90;;;;;;474455;249;27575;-76
2021/10/13 08:15:40;;;;;;;7.20;4.90;;;6.80;99.90;;;;;;474538;249;28040;-76
2021/10/13 08:17:41;;;;;;;5.53;4.83;;;6.80;99.90;;;;;;474507;249;27764;-76
2021/10/13 08:19:42;;;;;;;5.90;4.73;;;6.90;99.90;;;;;;474509;249;27696;-75
2021/10/13 08:21:43;;;;;;;5.53;4.80;;;7.00;99.90;;;;;;474524;249;28704;-76
2021/10/13 08:23:45;;;;;;;7.03;4.50;;;7.00;99.90;;;;;;474515;249;28018;-77
2021/10/13 08:25:46;;;;;;;6.13;4.60;;;7.10;99.90;;;;;;474531;249;27684;-76
2021/10/13 08:27:47;;;;;;;5.27;4.77;;;7.10;99.90;;;;;;474519;249;28706;-76
2021/10/13 08:29:48;;;;;;;4.20;3.80;;;7.10;99.90;;;;;;474556;249;27570;-75
2021/10/13 08:31:50;;;;;;;5.47;4.80;;;7.10;99.90;;;;;;474499;249;28110;-76
2021/10/13 08:33:52;;;;;;;5.40;3.90;;;7.10;99.90;;;;;;474514;249;28302;-76
2021/10/13 08:35:52;;;;;;;5.57;4.20;;;7.20;99.90;;;;;;474482;249;28969;-76
2021/10/13 08:37:53;;;;;;;5.43;4.60;;;7.20;99.90;;;;;;474542;249;28329;-76
2021/10/13 08:39:55;;;;;;;4.20;3.73;;;7.30;99.90;;;;;;474576;249;28066;-76
2021/10/13 08:41:56;;;;;;;8.23;5.03;;;7.30;99.90;;;;;;474581;249;29103;-76
2021/10/13 08:43:57;;;;;;;5.57;4.23;;;7.40;99.90;;;;;;474554;249;27880;-76
2021/10/13 08:45:58;;;;;;;5.97;3.80;;;7.50;99.90;;;;;;474589;249;28141;-76
2021/10/13 08:48:00;;;;;;;5.00;3.97;;;7.50;99.90;;;;;;474559;249;27700;-76
2021/10/13 08:50:01;;;;;;;4.80;3.90;;;7.70;99.90;;;;;;474587;249;27550;-76
2021/10/13 08:52:02;;;;;;;4.13;3.73;;;7.80;99.90;;;;;;474546;249;27568;-76
2021/10/13 08:54:03;;;;;;;5.77;4.23;;;7.90;99.90;;;;;;474603;249;27821;-75
2021/10/13 08:56:05;;;;;;;4.10;3.60;;;7.90;99.90;;;;;;474648;249;27910;-76
2021/10/13 08:58:06;;;;;;;4.50;3.30;;;8.00;99.90;;;;;;474636;249;27878;-76
2021/10/13 09:00:07;;;;;;;5.03;4.07;;;8.10;99.90;;;;;;474595;249;27915;-76
2021/10/13 09:02:09;;;;;;;3.93;3.50;;;8.00;99.90;;;;;;474605;249;28505;-76
2021/10/13 09:04:10;;;;;;;4.10;3.30;;;8.00;99.90;;;;;;474602;249;27832;-76
2021/10/13 09:06:11;;;;;;;8.10;3.80;;;8.00;99.90;;;;;;474578;249;27929;-76
2021/10/13 09:08:12;;;;;;;4.17;3.60;;;8.00;99.90;;;;;;474596;249;27944;-76
2021/10/13 09:10:13;;;;;;;3.70;3.40;;;8.00;99.90;;;;;;474610;249;27596;-75
2021/10/13 09:12:15;;;;;;;7.37;4.07;;;8.00;99.90;;;;;;474629;249;28606;-76
2021/10/13 09:14:16;;;;;;;3.80;3.50;;;8.00;99.90;;;;;;474602;249;28340;-76
2021/10/13 09:16:17;;;;;;;3.60;3.30;;;8.00;99.90;;;;;;474605;249;27923;-76
2021/10/13 09:18:19;;;;;;;3.83;3.40;;;8.10;99.90;;;;;;474600;249;28330;-76
2021/10/13 09:20:20;;;;;;;4.07;3.67;;;8.10;99.90;;;;;;474604;249;28392;-76
2021/10/13 09:22:21;;;;;;;4.67;4.03;;;8.10;99.90;;;;;;474659;249;27953;-76
2021/10/13 09:24:22;;;;;;;3.60;3.30;;;8.10;99.90;;;;;;474630;249;28340;-76
2021/10/13 09:26:23;;;;;;;6.93;3.70;;;8.30;99.90;;;;;;474654;249;28051;-75
2021/10/13 09:28:25;;;;;;;5.67;3.90;;;8.30;99.90;;;;;;474626;249;27869;-76
2021/10/13 09:30:26;;;;;;;5.60;4.00;;;8.20;99.90;;;;;;474611;249;27978;-76
2021/10/13 09:32:27;;;;;;;5.13;3.77;;;8.00;99.90;;;;;;474630;249;27465;-76
2021/10/13 09:34:28;;;;;;;6.33;4.23;;;8.10;99.90;;;;;;474585;249;27970;-76
2021/10/13 09:36:30;;;;;;;6.40;4.13;;;8.10;99.90;;;;;;474571;249;28017;-76
2021/10/13 09:38:31;;;;;;;9.63;4.20;;;8.20;99.90;;;;;;474634;249;27885;-76
2021/10/13 09:40:32;;;;;;;4.57;4.17;;;8.10;99.90;;;;;;474597;249;27877;-76
2021/10/13 09:42:33;;;;;;;4.90;4.07;;;8.30;99.90;;;;;;474604;249;28057;-76
2021/10/13 09:44:35;;;;;;;5.77;4.20;;;8.40;99.90;;;;;;474588;249;27980;-76
2021/10/13 09:46:36;;;;;;;5.80;3.77;;;8.50;99.90;;;;;;474633;249;27945;-76
2021/10/13 09:48:37;;;;;;;5.00;3.67;;;8.50;99.90;;;;;;474621;249;27893;-76
2021/10/13 09:50:38;;;;;;;5.20;4.13;;;8.40;99.90;;;;;;474582;249;28339;-76
2021/10/13 09:52:40;;;;;;;3.80;3.50;;;8.50;99.90;;;;;;474567;249;28211;-76
2021/10/13 09:54:41;;;;;;;4.13;3.73;;;8.50;99.90;;;;;;474599;249;28547;-76
2021/10/13 09:56:42;;;;;;;5.00;3.80;;;8.50;99.90;;;;;;474618;249;28401;-76
2021/10/13 09:58:43;;;;;;;3.80;3.47;;;8.50;99.90;;;;;;474642;249;27961;-76
2021/10/13 10:00:45;;;;;;;6.43;3.90;;;8.50;99.90;;;;;;474660;249;27966;-77
2021/10/13 10:02:46;;;;;;;4.30;3.90;;;8.50;99.90;;;;;;474650;249;27915;-76
2021/10/13 10:04:47;;;;;;;4.57;4.03;;;8.60;99.90;;;;;;474590;249;27901;-76
2021/10/13 10:06:48;;;;;;;4.77;3.73;;;8.50;99.90;;;;;;474598;249;27904;-76
2021/10/13 10:08:50;;;;;;;6.13;4.30;;;8.50;99.90;;;;;;474611;249;27906;-76
2021/10/13 10:10:51;;;;;;;5.87;4.30;;;8.60;99.90;;;;;;474577;249;27744;-76
2021/10/13 10:12:52;;;;;;;5.93;4.17;;;8.60;99.90;;;;;;474612;249;27931;-76
2021/10/13 10:14:53;;;;;;;5.00;4.50;;;8.50;99.90;;;;;;474640;249;28002;-76
2021/10/13 10:16:55;;;;;;;7.23;4.50;;;8.70;99.90;;;;;;474645;249;27726;-76
2021/10/13 10:18:56;;;;;;;7.43;4.70;;;8.80;99.90;;;;;;474603;249;28349;-76
2021/10/13 10:20:57;;;;;;;6.17;4.50;;;8.90;99.90;;;;;;474626;249;27634;-76
2021/10/13 10:22:58;;;;;;;4.10;3.50;;;8.90;99.90;;;;;;474608;249;27897;-76
2021/10/13 10:25:00;;;;;;;6.07;3.80;;;8.90;99.90;;;;;;474608;249;27777;-76
2021/10/13 10:27:01;;;;;;;4.23;3.83;;;9.00;99.90;;;;;;474557;249;28343;-76
2021/10/13 10:29:02;;;;;;;4.23;3.80;;;9.20;99.90;;;;;;474624;249;27935;-76
2021/10/13 10:31:03;;;;;;;4.80;3.43;;;9.30;99.90;;;;;;474597;249;27698;-76
2021/10/13 10:33:05;;;;;;;3.60;3.30;;;9.40;99.90;;;;;;474583;249;28271;-76
2021/10/13 10:35:06;;;;;;;5.13;3.90;;;9.60;99.90;;;;;;474592;249;27648;-76
2021/10/13 10:37:07;;;;;;;3.97;3.53;;;9.60;99.90;;;;;;474619;249;27998;-76